Terminal Aerodrome Forecast
Issued by NWS

Home | Current Version | Previous Version | Graphics & Text | Print | Product List | Glossary On
Versions: 1 2 3 4 5 6 7 8 9 10 11
000
FTUS43 KTOP 260500
TAFMHK
TAF
KMHK 260520Z 2606/2706 20009KT P6SM BKN200
     FM261500 03006KT 6SM BR OVC015
     FM270000 01006KT 4SM BR OVC009=

USA.gov is the U.S. government's official web portal to all federal, state and local government web resources and services.